createdAt,value
2019-02-17T00:01:23.174Z,99.90
2019-02-17T00:03:53.167Z,99.90
2019-02-17T00:06:23.103Z,99.90
2019-02-17T00:08:53.004Z,99.90
2019-02-17T00:11:22.828Z,99.90
2019-02-17T00:13:52.573Z,99.90
2019-02-17T00:16:22.581Z,99.90
2019-02-17T00:18:52.307Z,99.90
2019-02-17T00:21:22.745Z,99.90
2019-02-17T00:23:52.829Z,99.90
2019-02-17T00:26:22.818Z,99.90
2019-02-17T00:28:59.131Z,99.90
2019-02-17T00:31:24.479Z,99.90
2019-02-17T00:33:55.239Z,99.90
2019-02-17T00:36:25.298Z,99.90
2019-02-17T00:38:55.658Z,99.90
2019-02-17T00:41:25.722Z,99.90
2019-02-17T00:43:59.689Z,99.90
2019-02-17T00:46:29.670Z,99.90
2019-02-17T00:48:59.902Z,99.90
2019-02-17T00:51:32.426Z,99.90
2019-02-17T00:54:02.475Z,99.90
2019-02-17T00:56:35.259Z,99.90
2019-02-17T00:59:10.219Z,99.90
2019-02-17T01:01:39.183Z,99.90
2019-02-17T01:04:08.915Z,99.90
2019-02-17T01:06:40.187Z,99.90
2019-02-17T01:09:10.586Z,99.90
2019-02-17T01:11:40.529Z,99.90
2019-02-17T01:14:10.398Z,99.90
2019-02-17T01:16:40.857Z,99.90
2019-02-17T01:19:10.904Z,99.90
2019-02-17T01:21:40.958Z,99.90
2019-02-17T01:24:10.739Z,99.90
2019-02-17T01:26:41.239Z,99.90
2019-02-17T01:29:20.034Z,99.90
2019-02-17T01:31:45.178Z,99.90
2019-02-17T01:34:15.745Z,99.90
2019-02-17T01:36:46.110Z,99.90
2019-02-17T01:39:16.012Z,99.90
2019-02-17T01:41:45.787Z,99.90
2019-02-17T01:44:15.530Z,99.90
2019-02-17T01:46:45.545Z,99.90
2019-02-17T01:49:20.458Z,99.90
2019-02-17T01:51:50.769Z,99.90
2019-02-17T01:54:24.714Z,99.90
2019-02-17T01:56:54.678Z,99.90
2019-02-17T01:59:30.648Z,99.90
2019-02-17T02:02:00.532Z,99.90
2019-02-17T02:04:29.072Z,99.90
2019-02-17T02:06:59.398Z,99.90
2019-02-17T02:09:29.176Z,99.90
2019-02-17T02:11:58.963Z,99.90
2019-02-17T02:14:29.033Z,99.90
2019-02-17T02:17:02.080Z,99.90
2019-02-17T02:19:31.846Z,99.90
2019-02-17T02:22:01.946Z,99.90
2019-02-17T02:24:32.007Z,99.90
2019-02-17T02:27:02.156Z,99.90
2019-02-17T02:29:41.103Z,99.90
2019-02-17T02:32:09.762Z,99.90
2019-02-17T02:34:40.081Z,99.90
2019-02-17T02:37:12.728Z,99.90
2019-02-17T02:39:42.735Z,99.90
2019-02-17T02:42:12.771Z,99.90
2019-02-17T02:44:48.562Z,99.90
2019-02-17T02:47:17.909Z,99.90
2019-02-17T02:49:48.910Z,99.90
2019-02-17T02:52:19.530Z,99.90
2019-02-17T02:54:52.331Z,99.90
2019-02-17T02:57:23.336Z,99.90
2019-02-17T02:59:53.240Z,99.90
2019-02-17T03:02:23.871Z,99.90
2019-02-17T03:04:57.145Z,99.90
2019-02-17T03:07:27.713Z,99.90
2019-02-17T03:09:57.454Z,99.90
2019-02-17T03:12:28.003Z,99.90
2019-02-17T03:14:57.773Z,99.90
2019-02-17T03:17:27.905Z,99.90
2019-02-17T03:19:57.916Z,99.90
2019-02-17T03:22:27.690Z,99.90
2019-02-17T03:24:57.389Z,99.90
2019-02-17T03:27:27.542Z,99.90
2019-02-17T03:30:04.830Z,99.90
2019-02-17T03:32:29.408Z,99.90
2019-02-17T03:35:01.505Z,99.90
2019-02-17T03:37:31.634Z,99.90
2019-02-17T03:40:01.475Z,99.90
2019-02-17T03:42:31.784Z,99.90
2019-02-17T03:45:02.008Z,99.90
2019-02-17T03:47:32.151Z,99.90
2019-02-17T03:50:01.922Z,99.90
2019-02-17T03:52:32.003Z,99.90
2019-02-17T03:55:01.924Z,99.90
2019-02-17T03:57:34.000Z,99.90
2019-02-17T04:00:16.079Z,99.90
2019-02-17T04:02:35.545Z,99.90
2019-02-17T04:05:06.035Z,99.90
2019-02-17T04:07:36.170Z,99.90
2019-02-17T04:10:06.161Z,99.90
2019-02-17T04:12:36.121Z,99.90
2019-02-17T04:15:09.203Z,99.90
2019-02-17T04:17:39.075Z,99.90
2019-02-17T04:20:11.081Z,99.90
2019-02-17T04:22:40.906Z,99.90
2019-02-17T04:25:11.287Z,99.90
2019-02-17T04:27:41.330Z,99.90
2019-02-17T04:30:11.350Z,99.90
2019-02-17T04:32:41.575Z,99.90
2019-02-17T04:35:12.360Z,99.90
2019-02-17T04:37:42.706Z,99.90
2019-02-17T04:40:15.642Z,99.90
2019-02-17T04:42:45.439Z,99.90
2019-02-17T04:45:15.244Z,99.90
2019-02-17T04:47:48.750Z,99.90
2019-02-17T04:50:18.734Z,99.90
2019-02-17T04:52:49.383Z,99.90
2019-02-17T04:55:19.539Z,99.90
2019-02-17T04:57:49.681Z,99.90
2019-02-17T05:00:19.862Z,99.90
2019-02-17T05:02:49.563Z,99.90
2019-02-17T05:05:19.901Z,99.90
2019-02-17T05:07:49.951Z,99.90
2019-02-17T05:10:20.181Z,99.90
2019-02-17T05:12:50.050Z,99.90
2019-02-17T05:15:20.376Z,99.90
2019-02-17T05:17:50.439Z,99.90
2019-02-17T05:20:22.111Z,99.90
2019-02-17T05:22:52.233Z,99.90
2019-02-17T05:25:22.354Z,99.90
2019-02-17T05:27:52.184Z,99.90
2019-02-17T05:30:22.138Z,99.90
2019-02-17T05:32:51.880Z,99.90
2019-02-17T05:35:22.306Z,99.90
2019-02-17T05:37:52.499Z,99.90
2019-02-17T05:40:24.035Z,99.90
2019-02-17T05:42:53.845Z,99.90
2019-02-17T05:45:23.911Z,99.90
2019-02-17T05:47:53.923Z,99.90
2019-02-17T05:50:24.134Z,99.90
2019-02-17T05:52:54.341Z,99.90
2019-02-17T05:55:25.060Z,99.90
2019-02-17T05:57:54.851Z,99.90
2019-02-17T06:00:28.064Z,99.90
2019-02-17T06:02:58.267Z,99.90
2019-02-17T06:05:31.222Z,99.90
2019-02-17T06:08:01.202Z,99.90
2019-02-17T06:10:30.908Z,99.90
2019-02-17T06:13:01.496Z,99.90
2019-02-17T06:15:31.547Z,99.90
2019-02-17T06:18:01.743Z,99.90
2019-02-17T06:20:31.880Z,99.90
2019-02-17T06:23:02.038Z,99.90
2019-02-17T06:25:31.819Z,99.90
2019-02-17T06:28:02.105Z,99.90
2019-02-17T06:30:32.112Z,99.90
2019-02-17T06:33:01.937Z,99.90
2019-02-17T06:35:32.004Z,99.90
2019-02-17T06:38:02.906Z,99.90
2019-02-17T06:40:32.770Z,99.90
2019-02-17T06:43:19.766Z,99.90
2019-02-17T06:45:49.996Z,99.90
2019-02-17T06:48:41.726Z,99.90
2019-02-17T06:51:11.785Z,99.90
2019-02-17T06:53:42.298Z,99.90
2019-02-17T06:56:37.459Z,99.90
2019-02-17T06:59:07.383Z,99.90
2019-02-17T07:01:37.511Z,99.90
2019-02-17T07:04:07.621Z,99.90
2019-02-17T07:06:43.638Z,99.90
2019-02-17T07:09:13.590Z,99.90
2019-02-17T07:11:43.645Z,99.90
2019-02-17T07:14:13.686Z,99.90
2019-02-17T07:16:43.759Z,99.90
2019-02-17T07:19:14.038Z,99.90
2019-02-17T07:21:44.098Z,99.90
2019-02-17T07:24:14.140Z,99.90
2019-02-17T07:26:45.600Z,99.90
2019-02-17T07:29:17.035Z,99.90
2019-02-17T07:31:47.991Z,99.90
2019-02-17T07:34:18.079Z,99.90
2019-02-17T07:36:48.071Z,99.90
2019-02-17T07:39:17.862Z,99.90
2019-02-17T07:41:47.831Z,99.90
2019-02-17T07:44:18.097Z,99.90
2019-02-17T07:46:48.334Z,99.90
2019-02-17T07:49:18.060Z,99.90
2019-02-17T07:51:48.691Z,99.90
2019-02-17T07:54:18.694Z,99.90
2019-02-17T07:56:48.597Z,99.90
2019-02-17T07:59:18.435Z,99.90
2019-02-17T08:01:48.266Z,99.90
2019-02-17T08:04:18.316Z,99.90
2019-02-17T08:06:48.368Z,99.90
2019-02-17T08:09:18.143Z,99.90
2019-02-17T08:11:47.999Z,99.90
2019-02-17T08:14:17.878Z,99.90
2019-02-17T08:16:47.712Z,99.90
2019-02-17T08:19:18.190Z,99.90
2019-02-17T08:21:48.090Z,99.90
2019-02-17T08:24:17.898Z,99.90
2019-02-17T08:26:47.956Z,99.90
2019-02-17T08:29:17.662Z,99.90
2019-02-17T08:31:55.185Z,99.90
2019-02-17T08:34:19.447Z,99.90
2019-02-17T08:36:49.186Z,99.90
2019-02-17T08:39:19.322Z,99.90
2019-02-17T08:41:49.372Z,99.90
2019-02-17T08:44:19.138Z,99.90
2019-02-17T08:46:48.952Z,99.90
2019-02-17T08:49:18.878Z,99.90
2019-02-17T08:51:48.658Z,99.90
2019-02-17T08:54:18.495Z,99.90
2019-02-17T08:56:48.232Z,99.90
2019-02-17T08:59:17.966Z,99.90
2019-02-17T09:01:48.022Z,99.90
2019-02-17T09:04:18.227Z,99.90
2019-02-17T09:06:48.443Z,99.90
2019-02-17T09:09:19.122Z,99.90
2019-02-17T09:11:49.597Z,99.90
2019-02-17T09:14:19.603Z,99.90
2019-02-17T09:16:50.032Z,99.90
2019-02-17T09:19:19.961Z,99.90
2019-02-17T09:21:49.859Z,99.90
2019-02-17T09:24:19.650Z,99.90
2019-02-17T09:26:49.606Z,99.90
2019-02-17T09:29:19.499Z,99.90
2019-02-17T09:31:49.274Z,99.90
2019-02-17T09:34:19.282Z,99.90
2019-02-17T09:36:49.270Z,99.90
2019-02-17T09:39:19.623Z,99.90
2019-02-17T09:41:49.660Z,99.90
2019-02-17T09:44:19.731Z,99.90
2019-02-17T09:46:49.494Z,99.90
2019-02-17T09:49:19.311Z,99.90
2019-02-17T09:51:49.317Z,99.90
2019-02-17T09:54:19.336Z,99.90
2019-02-17T09:56:49.179Z,99.90
2019-02-17T09:59:19.510Z,99.90
2019-02-17T10:01:51.090Z,99.90
2019-02-17T10:04:20.826Z,99.90
2019-02-17T10:06:50.581Z,99.90
2019-02-17T10:09:20.494Z,98.00
2019-02-17T10:11:50.608Z,95.40
2019-02-17T10:14:20.512Z,93.10
2019-02-17T10:16:50.686Z,90.70
2019-02-17T10:19:20.466Z,90.40
2019-02-17T10:21:50.502Z,90.70
2019-02-17T10:24:20.203Z,86.10
2019-02-17T10:26:50.506Z,84.60
2019-02-17T10:29:20.504Z,85.00
2019-02-17T10:31:50.335Z,82.70
2019-02-17T10:34:20.294Z,80.40
2019-02-17T10:36:50.371Z,78.40
2019-02-17T10:39:20.376Z,77.10
2019-02-17T10:41:50.256Z,75.10
2019-02-17T10:44:20.159Z,75.30
2019-02-17T10:46:50.456Z,75.20
2019-02-17T10:49:20.514Z,75.30
2019-02-17T10:51:50.602Z,74.80
2019-02-17T10:54:22.957Z,74.90
2019-02-17T10:56:52.295Z,73.80
2019-02-17T10:59:22.049Z,75.10
2019-02-17T11:01:51.923Z,73.30
2019-02-17T11:04:21.966Z,70.60
2019-02-17T11:06:51.811Z,69.50
2019-02-17T11:09:23.024Z,68.80
2019-02-17T11:11:53.238Z,67.10
2019-02-17T11:14:23.203Z,66.80
2019-02-17T11:16:53.059Z,67.60
2019-02-17T11:19:23.131Z,66.30
2019-02-17T11:21:53.503Z,67.30
2019-02-17T11:24:23.840Z,64.60
2019-02-17T11:26:54.088Z,64.10
2019-02-17T11:29:23.974Z,62.60
2019-02-17T11:31:53.794Z,62.20
2019-02-17T11:34:23.866Z,62.10
2019-02-17T11:36:56.563Z,61.80
2019-02-17T11:39:26.292Z,61.10
2019-02-17T11:41:56.222Z,61.10
2019-02-17T11:44:26.483Z,59.70
2019-02-17T11:46:56.446Z,60.20
2019-02-17T11:49:26.486Z,59.10
2019-02-17T11:51:56.642Z,57.50
2019-02-17T11:54:26.470Z,55.20
2019-02-17T11:56:56.247Z,55.80
2019-02-17T11:59:26.431Z,54.90
2019-02-17T12:01:56.551Z,53.50
2019-02-17T12:04:26.654Z,53.20
2019-02-17T12:06:56.537Z,51.90
2019-02-17T12:09:26.647Z,50.70
2019-02-17T12:11:56.454Z,51.30
2019-02-17T12:14:32.303Z,50.70
2019-02-17T12:17:02.438Z,48.90
2019-02-17T12:19:32.515Z,48.50
2019-02-17T12:22:14.427Z,46.20
2019-02-17T12:24:49.101Z,46.80
2019-02-17T12:27:37.995Z,47.30
2019-02-17T12:30:15.485Z,47.00
2019-02-17T12:32:45.674Z,45.50
2019-02-17T12:35:15.636Z,45.00
2019-02-17T12:37:47.329Z,44.60
2019-02-17T12:40:16.918Z,43.40
2019-02-17T12:42:46.682Z,43.00
2019-02-17T12:45:18.346Z,43.50
2019-02-17T12:47:57.451Z,43.10
2019-02-17T12:50:19.910Z,42.60
2019-02-17T12:52:49.913Z,36.50
2019-02-17T12:55:22.256Z,35.70
2019-02-17T12:57:52.337Z,33.50
2019-02-17T13:00:22.567Z,31.00
2019-02-17T13:02:52.538Z,32.10
2019-02-17T13:05:22.287Z,31.90
2019-02-17T13:07:52.892Z,32.40
2019-02-17T13:10:22.670Z,32.80
2019-02-17T13:12:52.541Z,33.70
2019-02-17T13:15:22.268Z,33.30
2019-02-17T13:17:53.050Z,30.70
2019-02-17T13:20:23.248Z,31.10
2019-02-17T13:22:53.109Z,32.70
2019-02-17T13:25:22.898Z,31.50
2019-02-17T13:27:54.890Z,31.00
2019-02-17T13:30:25.081Z,30.60
2019-02-17T13:32:55.170Z,29.50
2019-02-17T13:35:25.273Z,30.00
2019-02-17T13:37:55.511Z,30.30
2019-02-17T13:40:25.459Z,30.10
2019-02-17T13:42:55.638Z,30.00
2019-02-17T13:45:26.951Z,28.40
2019-02-17T13:47:56.869Z,28.50
2019-02-17T13:50:26.716Z,29.20
2019-02-17T13:52:56.725Z,26.90
2019-02-17T13:55:26.681Z,25.60
2019-02-17T13:57:56.732Z,25.70
2019-02-17T14:00:26.727Z,26.20
2019-02-17T14:02:56.889Z,26.40
2019-02-17T14:05:26.708Z,28.10
2019-02-17T14:07:56.979Z,26.40
2019-02-17T14:10:27.074Z,26.30
2019-02-17T14:12:57.326Z,27.80
2019-02-17T14:15:27.188Z,29.30
2019-02-17T14:17:57.371Z,28.30
2019-02-17T14:20:27.236Z,28.50
2019-02-17T14:22:57.238Z,30.00
2019-02-17T14:25:27.072Z,28.40
2019-02-17T14:27:58.985Z,28.90
2019-02-17T14:30:30.392Z,28.50
2019-02-17T14:33:00.536Z,29.50
2019-02-17T14:35:30.849Z,29.90
2019-02-17T14:38:00.846Z,29.20
2019-02-17T14:40:30.714Z,29.00
2019-02-17T14:43:00.691Z,30.60
2019-02-17T14:45:30.681Z,30.50
2019-02-17T14:48:00.945Z,30.70
2019-02-17T14:50:31.672Z,32.00
2019-02-17T14:53:01.938Z,32.00
2019-02-17T14:55:32.034Z,31.80
2019-02-17T14:58:05.550Z,31.80
2019-02-17T15:00:33.625Z,32.90
2019-02-17T15:03:03.763Z,32.90
2019-02-17T15:05:33.513Z,33.60
2019-02-17T15:08:03.775Z,34.00
2019-02-17T15:10:33.824Z,33.70
2019-02-17T15:13:04.219Z,36.70
2019-02-17T15:15:35.019Z,39.90
2019-02-17T15:18:05.206Z,38.20
2019-02-17T15:20:35.083Z,38.10
2019-02-17T15:23:05.255Z,36.60
2019-02-17T15:25:35.080Z,37.10
2019-02-17T15:28:04.873Z,37.60
2019-02-17T15:30:35.045Z,39.10
2019-02-17T15:33:04.738Z,38.80
2019-02-17T15:35:34.563Z,39.10
2019-02-17T15:38:04.731Z,40.20
2019-02-17T15:40:34.943Z,41.90
2019-02-17T15:43:04.714Z,44.20
2019-02-17T15:45:35.250Z,45.40
2019-02-17T15:48:05.191Z,48.00
2019-02-17T15:50:34.873Z,49.40
2019-02-17T15:53:04.843Z,50.20
2019-02-17T15:55:34.602Z,50.70
2019-02-17T15:58:04.535Z,51.20
2019-02-17T16:00:34.599Z,53.20
2019-02-17T16:03:04.741Z,53.10
2019-02-17T16:05:34.573Z,54.50
2019-02-17T16:08:04.430Z,53.90
2019-02-17T16:10:34.761Z,55.40
2019-02-17T16:13:04.803Z,54.40
2019-02-17T16:15:34.558Z,55.50
2019-02-17T16:18:04.433Z,55.40
2019-02-17T16:20:34.620Z,54.90
2019-02-17T16:23:04.451Z,55.80
2019-02-17T16:25:34.226Z,57.80
2019-02-17T16:28:04.382Z,57.40
2019-02-17T16:30:34.748Z,59.00
2019-02-17T16:33:04.612Z,60.40
2019-02-17T16:35:34.395Z,59.90
2019-02-17T16:38:04.450Z,59.70
2019-02-17T16:40:35.231Z,61.40
2019-02-17T16:43:05.181Z,61.20
2019-02-17T16:45:35.014Z,63.20
2019-02-17T16:48:04.965Z,66.10
2019-02-17T16:50:34.810Z,66.50
2019-02-17T16:53:04.974Z,66.20
2019-02-17T16:55:34.816Z,66.70
2019-02-17T16:58:05.416Z,67.20
2019-02-17T17:00:35.586Z,69.30
2019-02-17T17:03:05.742Z,68.40
2019-02-17T17:05:35.532Z,68.70
2019-02-17T17:08:05.763Z,70.00
2019-02-17T17:10:35.486Z,69.10
2019-02-17T17:13:05.994Z,68.50
2019-02-17T17:15:36.121Z,68.60
2019-02-17T17:18:06.251Z,71.20
2019-02-17T17:20:36.147Z,73.50
2019-02-17T17:23:06.496Z,75.80
2019-02-17T17:25:36.299Z,75.50
2019-02-17T17:28:06.067Z,75.90
2019-02-17T17:30:36.735Z,76.10
2019-02-17T17:33:06.585Z,76.60
2019-02-17T17:35:36.658Z,78.90
2019-02-17T17:38:06.734Z,81.10
2019-02-17T17:40:36.535Z,81.50
2019-02-17T17:43:06.462Z,80.10
2019-02-17T17:45:36.331Z,80.20
2019-02-17T17:48:06.602Z,83.00
2019-02-17T17:50:36.473Z,83.70
2019-02-17T17:53:06.327Z,84.90
2019-02-17T17:55:36.141Z,83.90
2019-02-17T17:58:06.109Z,86.60
2019-02-17T18:00:36.987Z,87.20
2019-02-17T18:03:07.402Z,88.20
2019-02-17T18:05:37.618Z,87.80
2019-02-17T18:08:09.039Z,89.40
2019-02-17T18:10:39.059Z,89.90
2019-02-17T18:13:09.139Z,91.10
2019-02-17T18:15:39.011Z,91.60
2019-02-17T18:18:08.803Z,90.70
2019-02-17T18:20:38.690Z,91.60
2019-02-17T18:23:08.884Z,91.20
2019-02-17T18:25:38.872Z,92.10
2019-02-17T18:28:08.988Z,94.10
2019-02-17T18:30:39.223Z,93.60
2019-02-17T18:33:09.119Z,93.90
2019-02-17T18:35:39.417Z,94.70
2019-02-17T18:38:09.162Z,95.80
2019-02-17T18:40:46.066Z,95.70
2019-02-17T18:43:10.586Z,95.10
2019-02-17T18:45:40.861Z,95.20
2019-02-17T18:48:10.653Z,97.50
2019-02-17T18:50:40.410Z,99.20
2019-02-17T18:53:10.175Z,98.80
2019-02-17T18:55:40.094Z,98.00
2019-02-17T18:58:10.078Z,97.50
2019-02-17T19:00:40.083Z,98.20
2019-02-17T19:03:10.164Z,99.20
2019-02-17T19:05:41.185Z,99.90
2019-02-17T19:08:11.354Z,99.90
2019-02-17T19:10:41.198Z,99.90
2019-02-17T19:13:11.103Z,99.90
2019-02-17T19:15:42.046Z,99.90
2019-02-17T19:18:12.199Z,99.90
2019-02-17T19:20:42.179Z,99.90
2019-02-17T19:23:11.933Z,99.90
2019-02-17T19:25:42.202Z,99.90
2019-02-17T19:28:12.066Z,99.90
2019-02-17T19:30:42.067Z,99.90
2019-02-17T19:33:12.660Z,99.90
2019-02-17T19:35:42.804Z,99.90
2019-02-17T19:38:12.769Z,99.90
2019-02-17T19:40:42.622Z,99.90
2019-02-17T19:43:12.715Z,99.90
2019-02-17T19:45:42.646Z,99.90
2019-02-17T19:48:12.828Z,99.90
2019-02-17T19:50:42.815Z,99.90
2019-02-17T19:53:12.937Z,99.90
2019-02-17T19:55:43.079Z,99.90
2019-02-17T19:58:13.180Z,99.90
2019-02-17T20:00:43.197Z,99.90
2019-02-17T20:03:38.190Z,99.90
2019-02-17T20:06:08.306Z,99.90
2019-02-17T20:08:38.362Z,99.90
2019-02-17T20:11:08.175Z,99.90
2019-02-17T20:13:38.543Z,99.90
2019-02-17T20:16:08.322Z,99.90
2019-02-17T20:18:38.099Z,99.90
2019-02-17T20:21:08.515Z,99.90
2019-02-17T20:23:39.426Z,99.90
2019-02-17T20:26:09.499Z,99.90
2019-02-17T20:28:43.298Z,99.90
2019-02-17T20:31:11.846Z,99.90
2019-02-17T20:33:41.708Z,99.90
2019-02-17T20:36:11.444Z,99.90
2019-02-17T20:38:41.250Z,99.90
2019-02-17T20:41:11.420Z,99.90
2019-02-17T20:43:41.209Z,99.90
2019-02-17T20:46:11.202Z,99.90
2019-02-17T20:48:41.238Z,99.90
2019-02-17T20:51:11.634Z,99.90
2019-02-17T20:53:41.466Z,99.90
2019-02-17T20:56:11.384Z,99.90
2019-02-17T20:58:41.126Z,99.90
2019-02-17T21:01:11.477Z,99.90
2019-02-17T21:03:41.359Z,99.90
2019-02-17T21:06:12.997Z,99.90
2019-02-17T21:08:45.880Z,99.90
2019-02-17T21:11:16.288Z,99.90
2019-02-17T21:13:46.802Z,99.90
2019-02-17T21:16:18.196Z,99.90
2019-02-17T21:18:48.939Z,99.90
2019-02-17T21:21:20.028Z,99.90
2019-02-17T21:23:50.295Z,99.90
2019-02-17T21:26:26.250Z,99.90
2019-02-17T21:28:53.983Z,99.90
2019-02-17T21:31:24.222Z,99.90
2019-02-17T21:33:56.126Z,99.90
2019-02-17T21:36:28.163Z,99.90
2019-02-17T21:38:58.876Z,99.90
2019-02-17T21:41:29.405Z,99.90
2019-02-17T21:43:59.431Z,99.90
2019-02-17T21:46:30.371Z,99.90
2019-02-17T21:49:07.463Z,99.90
2019-02-17T21:51:37.730Z,99.90
2019-02-17T21:54:07.513Z,99.90
2019-02-17T21:56:37.422Z,99.90
2019-02-17T21:59:07.855Z,99.90
2019-02-17T22:01:37.711Z,99.90
2019-02-17T22:04:09.679Z,99.90
2019-02-17T22:06:39.448Z,99.90
2019-02-17T22:09:12.854Z,99.90
2019-02-17T22:11:42.798Z,99.90
2019-02-17T22:14:14.524Z,99.90
2019-02-17T22:16:44.542Z,99.90
2019-02-17T22:19:14.912Z,99.90
2019-02-17T22:21:44.749Z,99.90
2019-02-17T22:24:14.524Z,99.90
2019-02-17T22:26:44.581Z,99.90
2019-02-17T22:29:14.626Z,99.90
2019-02-17T22:31:44.769Z,99.90
2019-02-17T22:34:14.724Z,99.90
2019-02-17T22:36:44.847Z,99.90
2019-02-17T22:39:15.374Z,99.90
2019-02-17T22:41:46.005Z,99.90
2019-02-17T22:44:16.084Z,99.90
2019-02-17T22:46:45.937Z,99.90
2019-02-17T22:49:15.703Z,99.90
2019-02-17T22:51:48.609Z,99.90
2019-02-17T22:54:21.890Z,99.90
2019-02-17T22:56:51.605Z,99.90
2019-02-17T22:59:24.690Z,99.90
2019-02-17T23:01:55.526Z,99.90
2019-02-17T23:04:25.601Z,99.90
2019-02-17T23:06:55.838Z,99.90
2019-02-17T23:09:26.203Z,99.90
2019-02-17T23:11:59.136Z,99.90
2019-02-17T23:14:27.574Z,99.90
2019-02-17T23:16:57.685Z,99.90
2019-02-17T23:19:27.626Z,99.90
2019-02-17T23:21:59.646Z,99.90
2019-02-17T23:24:29.542Z,99.90
2019-02-17T23:26:59.902Z,99.90
2019-02-17T23:29:30.156Z,99.90
2019-02-17T23:32:00.390Z,99.90
2019-02-17T23:34:30.562Z,99.90
2019-02-17T23:37:04.082Z,99.90
2019-02-17T23:39:31.837Z,99.90
2019-02-17T23:42:03.714Z,99.90
2019-02-17T23:44:33.571Z,99.90
2019-02-17T23:47:07.918Z,99.90
2019-02-17T23:49:38.066Z,99.90
2019-02-17T23:52:09.643Z,99.90
2019-02-17T23:54:40.081Z,99.90
2019-02-17T23:57:10.518Z,99.90
2019-02-17T23:59:40.434Z,99.90
